AKDT,Max TemperatureF,Mean TemperatureF,Min TemperatureF,Max Dew PointF,MeanDew PointF,Min DewpointF,Max Humidity, Mean Humidity, Min Humidity, Max Sea Level PressureIn, Mean Sea Level PressureIn, Min Sea Level PressureIn, Max VisibilityMiles, Mean VisibilityMiles, Min VisibilityMiles, Max Wind SpeedMPH, Mean Wind SpeedMPH, Max Gust SpeedMPH,PrecipitationIn, CloudCover, Events, WindDirDegrees
2011-9-1,61,53,46,49,46,43,97,81,55,30.06,29.83,29.69,10,10,8,13,9,20,0.17,5,,72
2011-9-2,55,52,48,52,49,46,100,90,82,30.12,30.06,29.96,10,10,6,16,8,30,0.12,8,Rain,93
2011-9-3,53,50,48,52,50,46,100,94,87,29.95,29.82,29.68,10,10,6,15,10,26,0.25,8,Rain,92
2011-9-4,55,52,48,49,48,47,100,88,77,29.70,29.67,29.65,10,10,10,14,7,23,0.02,8,Rain,94
2011-9-5,53,50,48,49,48,46,100,89,82,29.65,29.52,29.25,10,6,2,16,11,26,1.95,8,Rain,83
2011-9-6,55,52,48,52,50,47,100,92,83,29.78,29.48,29.27,10,9,3,16,9,26,0.76,7,Rain,90
2011-9-7,61,53,46,50,48,45,100,85,60,30.12,29.97,29.80,10,10,8,16,10,26,0.10,6,Rain,92
2011-9-8,54,48,44,50,46,42,100,92,77,30.14,30.02,29.88,10,8,3,16,7,23,0.62,4,Rain,305
2011-9-9,55,52,48,54,50,44,100,89,74,30.30,30.07,29.90,10,9,6,18,13,34,0.50,8,Rain,99
2011-9-10,57,50,42,48,44,41,100,89,69,30.33,30.31,30.26,10,8,0,10,4,,0.00,2,Fog,258
2011-9-11,62,50,39,47,42,39,97,74,46,30.30,30.21,30.12,10,10,10,17,10,22,0.00,0,,300
2011-9-12,68,56,45,51,44,39,92,71,36,30.11,29.99,29.90,10,10,10,18,14,,0.00,0,,296
2011-9-13,61,56,52,54,51,43,94,81,58,30.09,30.04,29.94,10,10,10,15,10,28,0.03,8,Rain,86
2011-9-14,57,54,50,52,52,49,96,91,77,30.02,29.92,29.85,10,9,5,15,9,24,0.22,8,Rain,86
2011-9-15,54,50,46,48,46,44,100,86,74,29.90,29.86,29.80,10,10,10,8,4,,0.00,7,Rain,102
2011-9-16,55,50,46,47,45,44,100,87,71,29.80,29.75,29.69,10,10,10,6,4,,0.00,7,,115
2011-9-17,55,50,45,47,45,43,97,85,69,29.76,29.71,29.59,10,10,10,14,8,25,0.01,7,Rain,95
2011-9-18,55,48,42,47,42,38,93,80,53,29.76,29.53,29.41,10,10,10,18,12,25,0.00,6,Rain,324
2011-9-19,55,52,48,47,46,45,96,87,72,29.89,29.78,29.52,10,8,3,18,10,29,1.15,8,Rain,92
2011-9-20,54,52,50,52,49,48,94,90,88,29.52,29.42,29.39,10,8,3,18,14,32,1.56,8,Rain,80
2011-9-21,52,48,46,48,47,46,100,93,82,29.40,29.15,28.95,10,6,2,22,12,40,1.70,8,Rain,97
2011-9-22,53,48,44,47,45,42,96,88,74,29.61,29.48,29.17,10,9,6,20,15,40,0.25,6,Rain,100
2011-9-23,48,46,43,46,43,39,100,90,74,29.62,29.30,29.04,10,10,7,22,13,29,0.38,8,Rain,49
2011-9-24,51,46,41,45,43,40,96,85,74,29.79,29.72,29.61,10,10,10,18,10,28,0.00,6,,105
2011-9-25,57,46,37,41,39,35,100,76,45,29.60,29.50,29.40,10,10,10,18,12,23,0.00,2,,335
2011-9-26,55,48,41,43,38,32,93,73,49,29.62,29.47,29.26,10,10,10,16,7,25,0.00,5,,301
2011-9-27,55,48,42,42,37,30,82,67,47,29.88,29.50,29.27,10,10,10,14,9,20,0.00,4,,318
2011-9-28,48,45,42,45,43,39,93,89,76,30.06,30.02,29.91,10,9,5,15,11,32,0.67,8,Rain,90
2011-9-29,46,42,39,43,41,39,100,90,81,29.99,29.70,29.32,10,9,7,16,9,22,0.51,7,Rain,305
2011-9-30,52,46,42,43,41,38,100,84,61,29.92,29.63,29.32,10,10,10,16,7,28,0.02,7,Rain,84